createdAt,value
2023-05-21T00:00:56.185Z,13.17
2023-05-21T00:04:59.108Z,12.98
2023-05-21T00:09:02.460Z,12.97
2023-05-21T00:13:05.822Z,12.86
2023-05-21T00:17:10.480Z,12.77
2023-05-21T00:21:14.233Z,12.79
2023-05-21T00:25:18.542Z,12.71
2023-05-21T00:29:21.723Z,12.63
2023-05-21T00:33:26.724Z,12.56
2023-05-21T00:37:34.947Z,12.42
2023-05-21T00:41:38.486Z,12.29
2023-05-21T00:45:44.491Z,12.44
2023-05-21T00:49:49.073Z,12.40
2023-05-21T00:53:53.704Z,12.31
2023-05-21T00:57:56.910Z,12.26
2023-05-21T01:02:04.302Z,12.21
2023-05-21T01:06:09.903Z,12.21
2023-05-21T01:10:13.295Z,12.19
2023-05-21T01:14:17.714Z,12.16
2023-05-21T01:18:21.485Z,12.08
2023-05-21T01:22:26.267Z,12.13
2023-05-21T01:26:30.756Z,12.13
2023-05-21T01:30:34.206Z,12.13
2023-05-21T01:34:42.016Z,12.04
2023-05-21T01:38:50.197Z,12.05
2023-05-21T01:42:54.883Z,12.04
2023-05-21T01:46:58.240Z,12.03
2023-05-21T01:51:03.005Z,11.97
2023-05-21T01:55:06.909Z,12.01
2023-05-21T01:59:12.184Z,11.97
2023-05-21T02:03:16.601Z,11.96
2023-05-21T02:07:19.987Z,11.97
2023-05-21T02:11:23.591Z,12.06
2023-05-21T02:15:28.639Z,12.13
2023-05-21T02:19:31.758Z,12.19
2023-05-21T02:23:35.347Z,12.24
2023-05-21T02:27:39.293Z,12.26
2023-05-21T02:31:43.687Z,12.26
2023-05-21T02:35:46.976Z,12.35
2023-05-21T02:39:50.176Z,12.45
2023-05-21T02:43:54.629Z,12.45
2023-05-21T02:47:59.512Z,12.55
2023-05-21T02:52:04.123Z,12.60
2023-05-21T02:56:08.088Z,12.59
2023-05-21T03:00:11.949Z,12.53
2023-05-21T03:04:18.650Z,12.63
2023-05-21T03:08:21.830Z,12.62
2023-05-21T03:12:24.933Z,12.54
2023-05-21T03:16:28.852Z,12.61
2023-05-21T03:20:33.579Z,12.67
2023-05-21T03:24:38.382Z,12.62
2023-05-21T03:28:43.022Z,12.62
2023-05-21T03:32:46.476Z,12.61
2023-05-21T03:36:51.503Z,12.55
2023-05-21T03:40:55.435Z,12.49
2023-05-21T03:44:59.396Z,12.54
2023-05-21T03:49:25.688Z,12.47
2023-05-21T03:53:35.292Z,12.49
2023-05-21T03:57:38.575Z,12.50
2023-05-21T04:01:42.946Z,12.50
2023-05-21T04:05:50.452Z,12.50
2023-05-21T04:09:55.119Z,12.51
2023-05-21T04:13:58.233Z,12.59
2023-05-21T04:18:01.237Z,12.54
2023-05-21T04:22:04.331Z,12.63
2023-05-21T04:26:09.281Z,12.59
2023-05-21T04:30:16.070Z,12.64
2023-05-21T04:34:21.716Z,12.71
2023-05-21T04:38:26.090Z,12.78
2023-05-21T04:42:30.612Z,12.77
2023-05-21T04:46:34.983Z,12.85
2023-05-21T04:50:39.244Z,12.90
2023-05-21T04:54:42.412Z,12.96
2023-05-21T04:58:48.083Z,13.00
2023-05-21T05:02:51.194Z,13.15
2023-05-21T05:06:54.352Z,13.27
2023-05-21T05:10:57.624Z,13.28
2023-05-21T05:15:02.030Z,13.30
2023-05-21T05:19:05.651Z,13.27
2023-05-21T05:23:08.966Z,13.39
2023-05-21T05:27:12.140Z,13.35
2023-05-21T05:31:16.957Z,13.41
2023-05-21T05:35:20.554Z,13.46
2023-05-21T05:39:23.565Z,13.51
2023-05-21T05:43:27.575Z,13.62
2023-05-21T05:47:33.614Z,13.68
2023-05-21T05:51:37.598Z,13.83
2023-05-21T05:55:40.698Z,13.95
2023-05-21T05:59:43.818Z,14.01
2023-05-21T06:03:49.733Z,14.22
2023-05-21T06:07:54.374Z,14.19
2023-05-21T06:11:57.326Z,14.20
2023-05-21T06:16:00.756Z,14.33
2023-05-21T06:20:06.242Z,14.29
2023-05-21T06:24:09.397Z,14.47
2023-05-21T06:28:12.795Z,14.51
2023-05-21T06:32:16.097Z,14.73
2023-05-21T06:36:22.118Z,14.68
2023-05-21T06:40:25.576Z,14.88
2023-05-21T06:44:32.268Z,14.99
2023-05-21T06:48:46.794Z,15.20
2023-05-21T06:52:51.984Z,15.32
2023-05-21T06:56:56.457Z,15.39
2023-05-21T07:01:01.036Z,15.69
2023-05-21T07:05:04.591Z,15.79
2023-05-21T07:09:09.448Z,15.58
2023-05-21T07:13:14.248Z,15.83
2023-05-21T07:17:17.193Z,16.03
2023-05-21T07:21:20.475Z,16.46
2023-05-21T07:25:26.864Z,16.32
2023-05-21T07:29:29.845Z,15.93
2023-05-21T07:33:32.861Z,16.01
2023-05-21T07:37:35.968Z,16.30
2023-05-21T07:41:41.914Z,16.19
2023-05-21T07:45:46.765Z,16.30
2023-05-21T07:49:49.979Z,16.84
2023-05-21T07:53:55.261Z,16.96
2023-05-21T07:58:09.198Z,16.62
2023-05-21T08:02:12.495Z,16.85
2023-05-21T08:06:15.807Z,16.76
2023-05-21T08:10:19.493Z,17.08
2023-05-21T08:14:26.170Z,17.14
2023-05-21T08:18:30.166Z,17.46
2023-05-21T08:22:33.440Z,17.16
2023-05-21T08:26:36.602Z,17.33
2023-05-21T08:30:41.455Z,16.96
2023-05-21T08:34:44.737Z,16.85
2023-05-21T08:39:06.133Z,16.86
2023-05-21T08:43:13.936Z,17.26
2023-05-21T08:47:25.069Z,16.89
2023-05-21T08:51:28.429Z,17.30
2023-05-21T08:55:32.660Z,17.37
2023-05-21T08:59:37.396Z,17.20
2023-05-21T09:03:51.983Z,17.34
2023-05-21T09:08:01.908Z,18.38
2023-05-21T09:12:14.503Z,17.70
2023-05-21T09:16:18.111Z,18.37
2023-05-21T09:20:26.645Z,18.58
2023-05-21T09:24:36.208Z,19.64
2023-05-21T09:28:43.711Z,19.06
2023-05-21T09:32:47.424Z,19.15
2023-05-21T09:36:53.702Z,18.75
2023-05-21T09:40:59.026Z,18.45
2023-05-21T09:45:04.760Z,18.73
2023-05-21T09:49:08.857Z,18.73
2023-05-21T09:53:14.758Z,19.64
2023-05-21T09:57:17.945Z,19.80
2023-05-21T10:01:23.488Z,19.88
2023-05-21T10:05:28.617Z,20.09
2023-05-21T10:09:33.311Z,20.48
2023-05-21T10:13:38.971Z,21.04
2023-05-21T10:17:42.362Z,20.91
2023-05-21T10:21:47.066Z,20.93
2023-05-21T10:25:52.267Z,22.66
2023-05-21T10:29:55.464Z,21.62
2023-05-21T10:33:58.811Z,21.14
2023-05-21T10:38:03.068Z,21.02
2023-05-21T10:42:13.798Z,22.33
2023-05-21T10:46:33.851Z,22.71
2023-05-21T10:50:47.123Z,21.44
2023-05-21T10:55:13.544Z,22.60
2023-05-21T10:59:23.428Z,22.39
2023-05-21T11:03:28.846Z,21.83
2023-05-21T11:07:51.244Z,20.83
2023-05-21T11:11:59.143Z,22.54
2023-05-21T11:16:15.365Z,21.96
2023-05-21T11:20:21.882Z,22.20
2023-05-21T11:24:25.777Z,23.10
2023-05-21T11:28:34.251Z,22.59
2023-05-21T11:33:02.051Z,23.06
2023-05-21T11:37:26.843Z,22.71
2023-05-21T11:41:30.122Z,22.48
2023-05-21T11:45:34.069Z,22.48
2023-05-21T11:49:39.507Z,23.01
2023-05-21T11:53:44.359Z,21.43
2023-05-21T11:57:48.372Z,22.33
2023-05-21T12:01:51.558Z,24.13
2023-05-21T12:05:58.273Z,23.50
2023-05-21T12:10:01.720Z,23.61
2023-05-21T12:14:07.953Z,23.26
2023-05-21T12:18:11.788Z,23.02
2023-05-21T12:22:20.536Z,23.62
2023-05-21T12:31:11.979Z,24.54
2023-05-21T12:35:27.637Z,24.96
2023-05-21T12:39:32.717Z,24.97
2023-05-21T12:43:36.093Z,24.97
2023-05-21T12:47:39.571Z,24.12
2023-05-21T12:51:42.992Z,25.95
2023-05-21T12:55:47.884Z,25.97
2023-05-21T13:00:05.549Z,25.71
2023-05-21T13:04:09.234Z,25.92
2023-05-21T13:08:23.419Z,26.46
2023-05-21T13:12:37.158Z,26.34
2023-05-21T13:16:40.738Z,26.04
2023-05-21T13:20:46.517Z,25.19
2023-05-21T13:24:49.798Z,26.59
2023-05-21T13:28:55.319Z,26.84
2023-05-21T13:32:58.692Z,26.12
2023-05-21T13:37:02.310Z,26.94
2023-05-21T13:41:05.997Z,27.49
2023-05-21T13:45:11.810Z,27.37
2023-05-21T13:49:15.016Z,27.22
2023-05-21T13:53:18.515Z,25.44
2023-05-21T13:57:22.298Z,25.82
2023-05-21T14:01:27.813Z,25.78
2023-05-21T14:05:30.886Z,26.91
2023-05-21T14:09:34.332Z,25.98
2023-05-21T14:13:37.629Z,26.89
2023-05-21T14:17:42.616Z,26.60
2023-05-21T14:21:46.298Z,26.17
2023-05-21T14:25:49.460Z,26.28
2023-05-21T14:29:52.574Z,27.08
2023-05-21T14:33:57.241Z,26.44
2023-05-21T14:38:00.335Z,25.59
2023-05-21T14:42:04.291Z,25.43
2023-05-21T14:46:07.490Z,27.69
2023-05-21T14:50:12.487Z,26.76
2023-05-21T14:54:16.062Z,26.08
2023-05-21T14:58:21.440Z,27.02
2023-05-21T15:02:24.919Z,27.16
2023-05-21T15:06:32.380Z,27.78
2023-05-21T15:10:35.536Z,28.82
2023-05-21T15:14:38.883Z,27.47
2023-05-21T15:18:42.569Z,27.47
2023-05-21T15:22:47.255Z,26.03
2023-05-21T15:26:50.696Z,25.56
2023-05-21T15:30:54.193Z,25.53
2023-05-21T15:34:57.667Z,25.80
2023-05-21T15:39:03.907Z,24.88
2023-05-21T15:43:07.771Z,24.57
2023-05-21T15:47:11.240Z,24.92
2023-05-21T15:51:14.255Z,25.09
2023-05-21T15:55:19.688Z,25.75
2023-05-21T15:59:25.252Z,25.65
2023-05-21T16:03:28.437Z,26.01
2023-05-21T16:07:31.911Z,26.34
2023-05-21T16:11:36.864Z,25.80
2023-05-21T16:15:40.354Z,26.52
2023-05-21T16:19:43.854Z,25.10
2023-05-21T16:23:47.065Z,25.47
2023-05-21T16:27:51.579Z,25.97
2023-05-21T16:31:55.387Z,25.05
2023-05-21T16:35:59.061Z,24.13
2023-05-21T16:40:02.682Z,24.35
2023-05-21T16:44:08.740Z,24.35
2023-05-21T16:48:13.009Z,24.34
2023-05-21T16:52:16.305Z,23.79
2023-05-21T16:56:19.840Z,23.93
2023-05-21T17:00:24.872Z,24.11
2023-05-21T17:04:27.907Z,24.20
2023-05-21T17:08:31.332Z,23.75
2023-05-21T17:12:34.798Z,23.78
2023-05-21T17:16:42.888Z,24.79
2023-05-21T17:20:46.345Z,25.51
2023-05-21T17:24:49.473Z,25.36
2023-05-21T17:28:52.587Z,24.61
2023-05-21T17:32:58.453Z,24.55
2023-05-21T17:37:02.157Z,24.27
2023-05-21T17:41:05.664Z,23.87
2023-05-21T17:45:09.044Z,23.71
2023-05-21T17:49:13.909Z,23.59
2023-05-21T17:53:17.774Z,24.13
2023-05-21T17:57:20.782Z,24.16
2023-05-21T18:01:25.505Z,23.87
2023-05-21T18:05:30.226Z,23.83
2023-05-21T18:09:33.271Z,23.45
2023-05-21T18:13:36.416Z,22.97
2023-05-21T18:17:39.605Z,23.26
2023-05-21T18:21:43.993Z,23.17
2023-05-21T18:25:47.040Z,23.05
2023-05-21T18:29:50.243Z,22.86
2023-05-21T18:33:53.669Z,22.75
2023-05-21T18:37:58.974Z,22.76
2023-05-21T18:42:12.984Z,22.85
2023-05-21T18:46:17.466Z,22.60
2023-05-21T18:50:20.738Z,22.87
2023-05-21T18:54:25.396Z,22.72
2023-05-21T18:58:30.510Z,22.49
2023-05-21T19:02:34.176Z,22.41
2023-05-21T19:06:38.148Z,22.17
2023-05-21T19:10:42.657Z,22.11
2023-05-21T19:14:46.537Z,22.01
2023-05-21T19:18:49.763Z,21.77
2023-05-21T19:22:53.366Z,21.66
2023-05-21T19:26:57.955Z,21.60
2023-05-21T19:31:01.828Z,21.51
2023-05-21T19:35:05.790Z,21.39
2023-05-21T19:39:09.126Z,21.34
2023-05-21T19:43:15.297Z,21.29
2023-05-21T19:47:18.532Z,21.24
2023-05-21T19:51:21.581Z,21.14
2023-05-21T19:55:25.110Z,20.98
2023-05-21T19:59:29.890Z,20.85
2023-05-21T20:03:36.081Z,20.82
2023-05-21T20:07:40.061Z,20.80
2023-05-21T20:11:43.332Z,20.62
2023-05-21T20:15:48.077Z,20.51
2023-05-21T20:19:51.617Z,20.41
2023-05-21T20:23:55.916Z,20.27
2023-05-21T20:28:01.271Z,20.21
2023-05-21T20:32:06.165Z,20.18
2023-05-21T20:36:09.578Z,20.01
2023-05-21T20:40:14.793Z,19.94
2023-05-21T20:44:18.593Z,19.88
2023-05-21T20:48:23.656Z,19.80
2023-05-21T20:52:27.465Z,19.63
2023-05-21T20:56:41.413Z,19.53
2023-05-21T21:00:47.208Z,19.47
2023-05-21T21:04:51.879Z,19.37
2023-05-21T21:08:56.102Z,19.34
2023-05-21T21:12:59.462Z,19.25
2023-05-21T21:17:02.674Z,19.23
2023-05-21T21:21:07.070Z,19.14
2023-05-21T21:25:10.713Z,18.98
2023-05-21T21:29:13.692Z,18.90
2023-05-21T21:33:17.955Z,18.74
2023-05-21T21:37:22.963Z,18.68
2023-05-21T21:41:26.552Z,18.79
2023-05-21T21:45:29.771Z,18.70
2023-05-21T21:49:33.355Z,18.69
2023-05-21T21:53:37.824Z,18.69
2023-05-21T21:57:40.864Z,18.62
2023-05-21T22:01:44.111Z,18.52
2023-05-21T22:05:47.641Z,18.47
2023-05-21T22:09:52.209Z,18.27
2023-05-21T22:13:56.389Z,18.27
2023-05-21T22:18:00.950Z,18.35
2023-05-21T22:22:05.361Z,18.37
2023-05-21T22:26:10.688Z,18.36
2023-05-21T22:30:14.385Z,18.30
2023-05-21T22:34:18.659Z,18.26
2023-05-21T22:38:22.128Z,18.13
2023-05-21T22:42:26.931Z,18.08
2023-05-21T22:46:30.245Z,18.06
2023-05-21T22:50:33.395Z,18.01
2023-05-21T22:54:37.427Z,17.91
2023-05-21T22:58:42.128Z,17.85
2023-05-21T23:02:47.089Z,17.76
2023-05-21T23:06:50.673Z,17.68
2023-05-21T23:10:54.090Z,17.67
2023-05-21T23:14:58.556Z,17.68
2023-05-21T23:19:02.873Z,17.62
2023-05-21T23:23:06.147Z,17.61
2023-05-21T23:27:09.219Z,17.59
2023-05-21T23:31:14.047Z,17.53
2023-05-21T23:35:17.688Z,17.67
2023-05-21T23:39:21.227Z,17.74
2023-05-21T23:43:24.376Z,17.79
2023-05-21T23:47:28.661Z,17.84
2023-05-21T23:51:31.716Z,17.89
2023-05-21T23:55:34.845Z,17.87
2023-05-21T23:59:38.145Z,17.94
